KAQV

Peason Ridge Airport

Fort Polk, Louisiana, USA
METAR KAQV 162356Z AUTO 00000KT 10SM OVC095 11/03 A3010 RMK AO2 SLP196 T01110033 10139 20100 56004 $
Observed Flight Rules
Dec-16 @ 23:56 UTC (20 minutes ago) Visual Flight Rules
Wind Visibility Clouds
Calm 10 miles
  • Overcast at 9,500' AGL
Temperatures Readings
Current 11°C / 52°F
Dewpoint 3°C / 37°F
Humidity 58%
Altimeter 30.1" Hg
Pressure 1019.6 hPa
Elevation 111
METAR KAQV 162356Z AUTO 00000KT 10SM OVC095 11/03 A3010 RMK AO2 SLP196 T01110033 10139 20100 56004 $
Observed Flight Rules
Dec-16 @ 23:56 UTC
(20 minutes ago)
VFR
Wind Visibility
Calm 10 miles
Clouds
  • Overcast at 9,500' AGL
Temperature Dewpoint
11°C / 52°F 3°C / 37°F
Humidity Altimeter Pressure
58% 30.1" Hg 1019.6 hPa